sensor_id;sensor_type;location;lat;lon;timestamp;temperature;humidity
3478;DHT22;37937;61.490;23.506;2022-07-29T00:00:00;13.60;99.90
3478;DHT22;37937;61.490;23.506;2022-07-29T00:02:28;13.60;99.90
3478;DHT22;37937;61.490;23.506;2022-07-29T00:04:57;13.60;99.90
3478;DHT22;37937;61.490;23.506;2022-07-29T00:07:23;13.60;99.90
3478;DHT22;37937;61.490;23.506;2022-07-29T00:09:54;13.70;99.90
3478;DHT22;37937;61.490;23.506;2022-07-29T00:12:20;13.60;99.90
3478;DHT22;37937;61.490;23.506;2022-07-29T00:14:48;13.60;99.90
3478;DHT22;37937;61.490;23.506;2022-07-29T00:17:15;13.60;99.90
3478;DHT22;37937;61.490;23.506;2022-07-29T00:19:41;13.60;99.90
3478;DHT22;37937;61.490;23.506;2022-07-29T00:22:08;13.70;99.90
3478;DHT22;37937;61.490;23.506;2022-07-29T00:24:36;13.60;99.90
3478;DHT22;37937;61.490;23.506;2022-07-29T00:27:02;13.50;99.90
3478;DHT22;37937;61.490;23.506;2022-07-29T00:29:28;13.60;99.90
3478;DHT22;37937;61.490;23.506;2022-07-29T00:31:54;13.60;99.90
3478;DHT22;37937;61.490;23.506;2022-07-29T00:34:20;13.50;99.90
3478;DHT22;37937;61.490;23.506;2022-07-29T00:37:10;13.70;99.90
3478;DHT22;37937;61.490;23.506;2022-07-29T00:39:38;13.60;99.90
3478;DHT22;37937;61.490;23.506;2022-07-29T00:42:04;13.60;99.90
3478;DHT22;37937;61.490;23.506;2022-07-29T00:44:35;13.60;99.90
3478;DHT22;37937;61.490;23.506;2022-07-29T00:47:11;13.60;99.90
3478;DHT22;37937;61.490;23.506;2022-07-29T00:49:40;13.70;99.90
3478;DHT22;37937;61.490;23.506;2022-07-29T00:52:06;13.60;99.90
3478;DHT22;37937;61.490;23.506;2022-07-29T00:54:33;13.60;99.90
3478;DHT22;37937;61.490;23.506;2022-07-29T00:57:00;13.60;99.90
3478;DHT22;37937;61.490;23.506;2022-07-29T00:59:27;13.60;99.90
3478;DHT22;37937;61.490;23.506;2022-07-29T01:01:55;13.60;99.90
3478;DHT22;37937;61.490;23.506;2022-07-29T01:04:21;13.60;99.90
3478;DHT22;37937;61.490;23.506;2022-07-29T01:06:49;13.60;99.90
3478;DHT22;37937;61.490;23.506;2022-07-29T01:09:22;13.50;99.90
3478;DHT22;37937;61.490;23.506;2022-07-29T01:11:49;13.60;99.90
3478;DHT22;37937;61.490;23.506;2022-07-29T01:14:21;13.50;99.90
3478;DHT22;37937;61.490;23.506;2022-07-29T01:16:52;13.50;99.90
3478;DHT22;37937;61.490;23.506;2022-07-29T01:21:55;13.60;99.90
3478;DHT22;37937;61.490;23.506;2022-07-29T01:24:31;13.60;99.90
3478;DHT22;37937;61.490;23.506;2022-07-29T01:27:03;13.60;99.90
3478;DHT22;37937;61.490;23.506;2022-07-29T01:32:08;13.50;99.90
3478;DHT22;37937;61.490;23.506;2022-07-29T01:37:19;13.50;99.90
3478;DHT22;37937;61.490;23.506;2022-07-29T01:39:48;13.50;99.90
3478;DHT22;37937;61.490;23.506;2022-07-29T01:42:37;13.40;99.90
3478;DHT22;37937;61.490;23.506;2022-07-29T01:45:13;13.60;99.90
3478;DHT22;37937;61.490;23.506;2022-07-29T01:47:58;13.60;99.90
3478;DHT22;37937;61.490;23.506;2022-07-29T01:50:37;13.60;99.90
3478;DHT22;37937;61.490;23.506;2022-07-29T01:53:07;13.50;99.90
3478;DHT22;37937;61.490;23.506;2022-07-29T01:55:39;13.60;99.90
3478;DHT22;37937;61.490;23.506;2022-07-29T01:58:05;13.50;99.90
3478;DHT22;37937;61.490;23.506;2022-07-29T02:00:32;13.60;99.90
3478;DHT22;37937;61.490;23.506;2022-07-29T02:02:58;13.60;99.90
3478;DHT22;37937;61.490;23.506;2022-07-29T02:05:25;13.60;99.90
3478;DHT22;37937;61.490;23.506;2022-07-29T02:07:52;13.70;99.90
3478;DHT22;37937;61.490;23.506;2022-07-29T02:10:21;13.60;99.90
3478;DHT22;37937;61.490;23.506;2022-07-29T02:12:47;13.70;99.90
3478;DHT22;37937;61.490;23.506;2022-07-29T02:15:14;13.60;99.90
3478;DHT22;37937;61.490;23.506;2022-07-29T02:17:50;13.60;99.90
3478;DHT22;37937;61.490;23.506;2022-07-29T02:20:16;13.40;99.90
3478;DHT22;37937;61.490;23.506;2022-07-29T02:22:42;13.50;99.90
3478;DHT22;37937;61.490;23.506;2022-07-29T02:25:09;13.50;99.90
3478;DHT22;37937;61.490;23.506;2022-07-29T02:27:36;13.50;99.90
3478;DHT22;37937;61.490;23.506;2022-07-29T02:30:02;13.50;99.90
3478;DHT22;37937;61.490;23.506;2022-07-29T02:32:29;13.50;99.90
3478;DHT22;37937;61.490;23.506;2022-07-29T02:34:56;13.40;99.90
3478;DHT22;37937;61.490;23.506;2022-07-29T02:37:23;13.40;99.90
3478;DHT22;37937;61.490;23.506;2022-07-29T02:39:50;13.50;99.90
3478;DHT22;37937;61.490;23.506;2022-07-29T02:42:17;13.40;99.90
3478;DHT22;37937;61.490;23.506;2022-07-29T02:44:43;13.40;99.90
3478;DHT22;37937;61.490;23.506;2022-07-29T02:47:11;13.40;99.90
3478;DHT22;37937;61.490;23.506;2022-07-29T02:54:51;13.50;99.90
3478;DHT22;37937;61.490;23.506;2022-07-29T02:57:20;13.40;99.90
3478;DHT22;37937;61.490;23.506;2022-07-29T02:59:47;13.50;99.90
3478;DHT22;37937;61.490;23.506;2022-07-29T03:02:15;13.60;99.90
3478;DHT22;37937;61.490;23.506;2022-07-29T03:04:41;13.60;99.90
3478;DHT22;37937;61.490;23.506;2022-07-29T03:07:09;13.60;99.90
3478;DHT22;37937;61.490;23.506;2022-07-29T03:09:35;13.60;99.90
3478;DHT22;37937;61.490;23.506;2022-07-29T03:12:02;13.70;99.90
3478;DHT22;37937;61.490;23.506;2022-07-29T03:14:32;13.60;99.90
3478;DHT22;37937;61.490;23.506;2022-07-29T03:16:59;13.40;99.90
3478;DHT22;37937;61.490;23.506;2022-07-29T03:19:25;13.30;99.90
3478;DHT22;37937;61.490;23.506;2022-07-29T03:21:57;13.20;99.90
3478;DHT22;37937;61.490;23.506;2022-07-29T03:24:24;13.20;99.90
3478;DHT22;37937;61.490;23.506;2022-07-29T03:26:50;13.20;99.90
3478;DHT22;37937;61.490;23.506;2022-07-29T03:29:17;13.20;99.90
3478;DHT22;37937;61.490;23.506;2022-07-29T03:31:43;13.20;99.90
3478;DHT22;37937;61.490;23.506;2022-07-29T03:34:08;13.30;99.90
3478;DHT22;37937;61.490;23.506;2022-07-29T03:36:34;13.30;99.90
3478;DHT22;37937;61.490;23.506;2022-07-29T03:39:00;13.40;99.90
3478;DHT22;37937;61.490;23.506;2022-07-29T03:41:26;13.40;99.90
3478;DHT22;37937;61.490;23.506;2022-07-29T03:43:52;13.40;99.90
3478;DHT22;37937;61.490;23.506;2022-07-29T03:46:19;13.40;99.90
3478;DHT22;37937;61.490;23.506;2022-07-29T03:48:46;13.50;99.90
3478;DHT22;37937;61.490;23.506;2022-07-29T03:51:16;13.50;99.90
3478;DHT22;37937;61.490;23.506;2022-07-29T03:53:43;13.50;99.90
3478;DHT22;37937;61.490;23.506;2022-07-29T03:56:09;13.50;99.90
3478;DHT22;37937;61.490;23.506;2022-07-29T03:58:35;13.50;99.90
3478;DHT22;37937;61.490;23.506;2022-07-29T04:01:01;13.50;99.90
3478;DHT22;37937;61.490;23.506;2022-07-29T04:03:27;13.60;99.90
3478;DHT22;37937;61.490;23.506;2022-07-29T04:06:02;13.70;99.90
3478;DHT22;37937;61.490;23.506;2022-07-29T04:08:31;13.80;99.90
3478;DHT22;37937;61.490;23.506;2022-07-29T04:10:56;13.80;99.90
3478;DHT22;37937;61.490;23.506;2022-07-29T04:13:22;13.80;99.90
3478;DHT22;37937;61.490;23.506;2022-07-29T04:15:49;13.80;99.90
3478;DHT22;37937;61.490;23.506;2022-07-29T04:18:14;13.80;99.90
3478;DHT22;37937;61.490;23.506;2022-07-29T04:20:41;13.80;99.90
3478;DHT22;37937;61.490;23.506;2022-07-29T04:23:06;13.90;99.90
3478;DHT22;37937;61.490;23.506;2022-07-29T04:25:32;13.90;99.90
3478;DHT22;37937;61.490;23.506;2022-07-29T04:27:58;14.00;99.90
3478;DHT22;37937;61.490;23.506;2022-07-29T04:30:27;14.00;99.90
3478;DHT22;37937;61.490;23.506;2022-07-29T04:32:53;14.10;99.90
3478;DHT22;37937;61.490;23.506;2022-07-29T04:35:19;14.10;99.90
3478;DHT22;37937;61.490;23.506;2022-07-29T04:37:45;14.40;99.90
3478;DHT22;37937;61.490;23.506;2022-07-29T04:40:13;14.60;99.90
3478;DHT22;37937;61.490;23.506;2022-07-29T04:42:38;14.40;99.90
3478;DHT22;37937;61.490;23.506;2022-07-29T04:45:05;14.60;99.90
3478;DHT22;37937;61.490;23.506;2022-07-29T04:47:31;14.70;99.90
3478;DHT22;37937;61.490;23.506;2022-07-29T04:49:57;14.70;99.90
3478;DHT22;37937;61.490;23.506;2022-07-29T04:52:22;14.70;99.90
3478;DHT22;37937;61.490;23.506;2022-07-29T04:54:48;14.90;99.90
3478;DHT22;37937;61.490;23.506;2022-07-29T04:57:14;15.00;99.90
3478;DHT22;37937;61.490;23.506;2022-07-29T04:59:40;15.10;99.90
3478;DHT22;37937;61.490;23.506;2022-07-29T05:02:05;15.20;99.90
3478;DHT22;37937;61.490;23.506;2022-07-29T05:04:31;15.30;99.90
3478;DHT22;37937;61.490;23.506;2022-07-29T05:06:57;15.30;99.90
3478;DHT22;37937;61.490;23.506;2022-07-29T05:09:22;15.60;99.90
3478;DHT22;37937;61.490;23.506;2022-07-29T05:11:48;15.70;99.90
3478;DHT22;37937;61.490;23.506;2022-07-29T05:14:18;16.00;99.90
3478;DHT22;37937;61.490;23.506;2022-07-29T05:16:43;16.20;99.90
3478;DHT22;37937;61.490;23.506;2022-07-29T05:19:09;16.50;99.90
3478;DHT22;37937;61.490;23.506;2022-07-29T05:21:34;16.80;99.90
3478;DHT22;37937;61.490;23.506;2022-07-29T05:24:02;16.70;99.90
3478;DHT22;37937;61.490;23.506;2022-07-29T05:26:28;17.00;99.90
3478;DHT22;37937;61.490;23.506;2022-07-29T05:28:54;17.10;99.90
3478;DHT22;37937;61.490;23.506;2022-07-29T05:31:20;16.80;99.90
3478;DHT22;37937;61.490;23.506;2022-07-29T05:33:46;16.70;99.90
3478;DHT22;37937;61.490;23.506;2022-07-29T05:36:14;16.50;99.90
3478;DHT22;37937;61.490;23.506;2022-07-29T05:38:39;16.40;99.90
3478;DHT22;37937;61.490;23.506;2022-07-29T05:41:05;16.60;99.90
3478;DHT22;37937;61.490;23.506;2022-07-29T05:43:31;17.00;99.90
3478;DHT22;37937;61.490;23.506;2022-07-29T05:45:56;16.80;99.90
3478;DHT22;37937;61.490;23.506;2022-07-29T05:48:22;16.90;99.90
3478;DHT22;37937;61.490;23.506;2022-07-29T05:50:48;17.20;99.90
3478;DHT22;37937;61.490;23.506;2022-07-29T05:53:14;17.20;99.90
3478;DHT22;37937;61.490;23.506;2022-07-29T05:55:39;17.10;99.90
3478;DHT22;37937;61.490;23.506;2022-07-29T05:58:05;16.90;99.90
3478;DHT22;37937;61.490;23.506;2022-07-29T06:00:31;17.30;99.90
3478;DHT22;37937;61.490;23.506;2022-07-29T06:02:57;17.50;99.90
3478;DHT22;37937;61.490;23.506;2022-07-29T06:05:23;17.70;99.90
3478;DHT22;37937;61.490;23.506;2022-07-29T06:07:49;18.00;99.90
3478;DHT22;37937;61.490;23.506;2022-07-29T06:10:15;18.10;99.90
3478;DHT22;37937;61.490;23.506;2022-07-29T06:12:40;18.60;99.90
3478;DHT22;37937;61.490;23.506;2022-07-29T06:15:06;18.70;99.90
3478;DHT22;37937;61.490;23.506;2022-07-29T06:17:32;19.10;99.90
3478;DHT22;37937;61.490;23.506;2022-07-29T06:19:58;19.60;99.90
3478;DHT22;37937;61.490;23.506;2022-07-29T06:22:23;19.90;99.90
3478;DHT22;37937;61.490;23.506;2022-07-29T06:24:49;19.50;99.90
3478;DHT22;37937;61.490;23.506;2022-07-29T06:27:15;18.90;99.90
3478;DHT22;37937;61.490;23.506;2022-07-29T06:29:41;19.10;99.90
3478;DHT22;37937;61.490;23.506;2022-07-29T06:32:07;19.10;99.90
3478;DHT22;37937;61.490;23.506;2022-07-29T06:34:34;18.90;99.90
3478;DHT22;37937;61.490;23.506;2022-07-29T06:37:00;18.70;99.90
3478;DHT22;37937;61.490;23.506;2022-07-29T06:39:29;18.20;99.90
3478;DHT22;37937;61.490;23.506;2022-07-29T06:41:55;18.00;99.90
3478;DHT22;37937;61.490;23.506;2022-07-29T06:44:21;17.80;99.90
3478;DHT22;37937;61.490;23.506;2022-07-29T06:46:47;18.30;99.90
3478;DHT22;37937;61.490;23.506;2022-07-29T06:49:15;18.70;99.90
3478;DHT22;37937;61.490;23.506;2022-07-29T06:51:41;18.50;99.90
3478;DHT22;37937;61.490;23.506;2022-07-29T06:54:07;18.10;99.90
3478;DHT22;37937;61.490;23.506;2022-07-29T06:56:33;18.20;99.90
3478;DHT22;37937;61.490;23.506;2022-07-29T06:59:02;18.30;99.90
3478;DHT22;37937;61.490;23.506;2022-07-29T07:01:28;17.90;99.90
3478;DHT22;37937;61.490;23.506;2022-07-29T07:03:53;18.20;99.90
3478;DHT22;37937;61.490;23.506;2022-07-29T07:06:19;17.90;99.90
3478;DHT22;37937;61.490;23.506;2022-07-29T07:08:45;17.90;99.90
3478;DHT22;37937;61.490;23.506;2022-07-29T07:11:10;18.00;99.90
3478;DHT22;37937;61.490;23.506;2022-07-29T07:13:36;17.70;99.90
3478;DHT22;37937;61.490;23.506;2022-07-29T07:16:02;17.70;99.90
3478;DHT22;37937;61.490;23.506;2022-07-29T07:18:30;17.80;99.90
3478;DHT22;37937;61.490;23.506;2022-07-29T07:20:56;17.60;99.90
3478;DHT22;37937;61.490;23.506;2022-07-29T07:23:22;17.30;99.90
3478;DHT22;37937;61.490;23.506;2022-07-29T07:25:48;17.30;99.90
3478;DHT22;37937;61.490;23.506;2022-07-29T07:28:17;17.40;99.90
3478;DHT22;37937;61.490;23.506;2022-07-29T07:30:44;17.40;99.90
3478;DHT22;37937;61.490;23.506;2022-07-29T07:33:09;17.30;99.90
3478;DHT22;37937;61.490;23.506;2022-07-29T07:35:35;17.50;99.90
3478;DHT22;37937;61.490;23.506;2022-07-29T07:38:01;17.70;99.90
3478;DHT22;37937;61.490;23.506;2022-07-29T07:40:26;17.60;99.90
3478;DHT22;37937;61.490;23.506;2022-07-29T07:42:52;17.60;99.90
3478;DHT22;37937;61.490;23.506;2022-07-29T07:45:18;17.70;99.90
3478;DHT22;37937;61.490;23.506;2022-07-29T07:47:44;17.60;99.90
3478;DHT22;37937;61.490;23.506;2022-07-29T07:50:10;17.40;99.90
3478;DHT22;37937;61.490;23.506;2022-07-29T07:52:50;16.60;99.90
3478;DHT22;37937;61.490;23.506;2022-07-29T07:55:16;16.60;99.90
3478;DHT22;37937;61.490;23.506;2022-07-29T07:57:41;16.60;99.90
3478;DHT22;37937;61.490;23.506;2022-07-29T08:00:07;16.70;99.90
3478;DHT22;37937;61.490;23.506;2022-07-29T08:02:33;16.90;99.90
3478;DHT22;37937;61.490;23.506;2022-07-29T08:04:59;16.80;99.90
3478;DHT22;37937;61.490;23.506;2022-07-29T08:07:25;16.90;99.90
3478;DHT22;37937;61.490;23.506;2022-07-29T08:09:51;17.20;99.90
3478;DHT22;37937;61.490;23.506;2022-07-29T08:12:17;17.40;99.90
3478;DHT22;37937;61.490;23.506;2022-07-29T08:14:42;17.50;99.90
3478;DHT22;37937;61.490;23.506;2022-07-29T08:17:08;17.40;99.90
3478;DHT22;37937;61.490;23.506;2022-07-29T08:19:34;17.80;99.90
3478;DHT22;37937;61.490;23.506;2022-07-29T08:22:00;18.10;99.90
3478;DHT22;37937;61.490;23.506;2022-07-29T08:24:25;18.30;99.90
3478;DHT22;37937;61.490;23.506;2022-07-29T08:27:10;17.60;99.90
3478;DHT22;37937;61.490;23.506;2022-07-29T08:29:36;17.20;99.90
3478;DHT22;37937;61.490;23.506;2022-07-29T08:32:03;16.60;99.90
3478;DHT22;37937;61.490;23.506;2022-07-29T08:34:29;16.60;99.90
3478;DHT22;37937;61.490;23.506;2022-07-29T08:36:56;16.60;99.90
3478;DHT22;37937;61.490;23.506;2022-07-29T08:39:22;16.60;99.90
3478;DHT22;37937;61.490;23.506;2022-07-29T08:41:48;16.70;99.90
3478;DHT22;37937;61.490;23.506;2022-07-29T08:44:18;16.70;99.90
3478;DHT22;37937;61.490;23.506;2022-07-29T08:46:44;17.00;99.90
3478;DHT22;37937;61.490;23.506;2022-07-29T08:49:09;17.20;99.90
3478;DHT22;37937;61.490;23.506;2022-07-29T08:51:36;17.40;99.90
3478;DHT22;37937;61.490;23.506;2022-07-29T08:54:02;17.90;99.90
3478;DHT22;37937;61.490;23.506;2022-07-29T08:56:27;17.80;99.90
3478;DHT22;37937;61.490;23.506;2022-07-29T08:58:54;17.80;99.90
3478;DHT22;37937;61.490;23.506;2022-07-29T09:01:24;18.00;99.90
3478;DHT22;37937;61.490;23.506;2022-07-29T09:03:50;17.90;99.90
3478;DHT22;37937;61.490;23.506;2022-07-29T09:06:20;17.70;99.90
3478;DHT22;37937;61.490;23.506;2022-07-29T09:08:46;17.40;99.90
3478;DHT22;37937;61.490;23.506;2022-07-29T09:11:13;17.50;99.90
3478;DHT22;37937;61.490;23.506;2022-07-29T09:13:39;17.20;99.90
3478;DHT22;37937;61.490;23.506;2022-07-29T09:16:05;17.00;99.90
3478;DHT22;37937;61.490;23.506;2022-07-29T09:21:02;16.60;99.90
3478;DHT22;37937;61.490;23.506;2022-07-29T09:26:36;16.40;99.90
3478;DHT22;37937;61.490;23.506;2022-07-29T09:29:10;16.30;99.90
3478;DHT22;37937;61.490;23.506;2022-07-29T09:31:40;16.50;99.90
3478;DHT22;37937;61.490;23.506;2022-07-29T09:34:07;16.60;99.90
3478;DHT22;37937;61.490;23.506;2022-07-29T09:36:39;16.50;99.90
3478;DHT22;37937;61.490;23.506;2022-07-29T09:39:05;16.60;99.90
3478;DHT22;37937;61.490;23.506;2022-07-29T09:41:43;16.80;99.90
3478;DHT22;37937;61.490;23.506;2022-07-29T09:44:10;16.70;99.90
3478;DHT22;37937;61.490;23.506;2022-07-29T09:46:35;16.80;99.90
3478;DHT22;37937;61.490;23.506;2022-07-29T09:49:05;17.00;99.90
3478;DHT22;37937;61.490;23.506;2022-07-29T09:51:32;17.30;99.90
3478;DHT22;37937;61.490;23.506;2022-07-29T09:53:58;17.70;99.90
3478;DHT22;37937;61.490;23.506;2022-07-29T09:56:38;18.00;99.90
3478;DHT22;37937;61.490;23.506;2022-07-29T09:59:05;18.60;99.90
3478;DHT22;37937;61.490;23.506;2022-07-29T10:01:31;18.90;99.90
3478;DHT22;37937;61.490;23.506;2022-07-29T10:03:56;18.40;99.90
3478;DHT22;37937;61.490;23.506;2022-07-29T10:06:22;18.30;99.90
3478;DHT22;37937;61.490;23.506;2022-07-29T10:08:49;18.60;99.90
3478;DHT22;37937;61.490;23.506;2022-07-29T10:11:18;18.60;99.90
3478;DHT22;37937;61.490;23.506;2022-07-29T10:13:45;19.30;99.90
3478;DHT22;37937;61.490;23.506;2022-07-29T10:16:12;19.10;99.90
3478;DHT22;37937;61.490;23.506;2022-07-29T10:18:38;18.90;99.90
3478;DHT22;37937;61.490;23.506;2022-07-29T10:21:05;18.90;99.90
3478;DHT22;37937;61.490;23.506;2022-07-29T10:23:30;18.40;99.90
3478;DHT22;37937;61.490;23.506;2022-07-29T10:25:57;18.30;99.90
3478;DHT22;37937;61.490;23.506;2022-07-29T10:28:23;18.40;99.90
3478;DHT22;37937;61.490;23.506;2022-07-29T10:30:50;18.30;99.90
3478;DHT22;37937;61.490;23.506;2022-07-29T10:40:59;18.10;99.90
3478;DHT22;37937;61.490;23.506;2022-07-29T10:43:46;18.30;99.90
3478;DHT22;37937;61.490;23.506;2022-07-29T10:46:12;18.60;99.90
3478;DHT22;37937;61.490;23.506;2022-07-29T10:49:23;18.60;99.90
3478;DHT22;37937;61.490;23.506;2022-07-29T10:51:23;18.50;99.90
3478;DHT22;37937;61.490;23.506;2022-07-29T10:53:52;18.80;99.90
3478;DHT22;37937;61.490;23.506;2022-07-29T10:56:25;19.50;99.90
3478;DHT22;37937;61.490;23.506;2022-07-29T11:01:35;18.80;99.90
3478;DHT22;37937;61.490;23.506;2022-07-29T11:04:01;18.70;92.40
3478;DHT22;37937;61.490;23.506;2022-07-29T11:07:05;18.70;99.90
3478;DHT22;37937;61.490;23.506;2022-07-29T11:09:16;18.70;99.90
3478;DHT22;37937;61.490;23.506;2022-07-29T11:11:43;18.70;99.90
3478;DHT22;37937;61.490;23.506;2022-07-29T11:14:13;19.10;99.90
3478;DHT22;37937;61.490;23.506;2022-07-29T11:17:21;19.40;99.90
3478;DHT22;37937;61.490;23.506;2022-07-29T11:19:32;19.80;99.90
3478;DHT22;37937;61.490;23.506;2022-07-29T11:21:59;19.80;99.90
3478;DHT22;37937;61.490;23.506;2022-07-29T11:24:26;19.80;99.90
3478;DHT22;37937;61.490;23.506;2022-07-29T11:27:07;19.70;99.90
3478;DHT22;37937;61.490;23.506;2022-07-29T11:29:34;19.70;99.90
3478;DHT22;37937;61.490;23.506;2022-07-29T11:32:11;19.10;99.90
3478;DHT22;37937;61.490;23.506;2022-07-29T11:34:37;19.10;99.90
3478;DHT22;37937;61.490;23.506;2022-07-29T11:39:32;19.00;99.90
3478;DHT22;37937;61.490;23.506;2022-07-29T11:44:59;19.00;99.90
3478;DHT22;37937;61.490;23.506;2022-07-29T11:47:31;19.00;99.90
3478;DHT22;37937;61.490;23.506;2022-07-29T11:49:58;19.10;99.90
3478;DHT22;37937;61.490;23.506;2022-07-29T11:52:31;18.90;99.90
3478;DHT22;37937;61.490;23.506;2022-07-29T11:54:58;19.10;99.90
3478;DHT22;37937;61.490;23.506;2022-07-29T11:57:27;18.90;99.90
3478;DHT22;37937;61.490;23.506;2022-07-29T11:59:53;18.80;99.90
3478;DHT22;37937;61.490;23.506;2022-07-29T12:02:21;18.60;99.90
3478;DHT22;37937;61.490;23.506;2022-07-29T12:04:48;18.70;99.90
3478;DHT22;37937;61.490;23.506;2022-07-29T12:07:15;19.00;99.90
3478;DHT22;37937;61.490;23.506;2022-07-29T12:09:49;19.20;99.90
3478;DHT22;37937;61.490;23.506;2022-07-29T12:12:15;19.40;99.90
3478;DHT22;37937;61.490;23.506;2022-07-29T12:14:41;19.90;99.90
3478;DHT22;37937;61.490;23.506;2022-07-29T12:17:24;19.70;99.90
3478;DHT22;37937;61.490;23.506;2022-07-29T12:19:51;19.50;99.90
3478;DHT22;37937;61.490;23.506;2022-07-29T12:22:27;19.40;99.90
3478;DHT22;37937;61.490;23.506;2022-07-29T12:24:54;19.20;99.90
3478;DHT22;37937;61.490;23.506;2022-07-29T12:27:20;19.50;99.90
3478;DHT22;37937;61.490;23.506;2022-07-29T12:29:56;19.20;99.90
3478;DHT22;37937;61.490;23.506;2022-07-29T12:32:22;18.90;99.90
3478;DHT22;37937;61.490;23.506;2022-07-29T12:34:48;19.10;99.90
3478;DHT22;37937;61.490;23.506;2022-07-29T12:37:13;18.70;99.90
3478;DHT22;37937;61.490;23.506;2022-07-29T12:39:39;18.80;99.90
3478;DHT22;37937;61.490;23.506;2022-07-29T12:42:12;18.70;99.90
3478;DHT22;37937;61.490;23.506;2022-07-29T12:44:47;18.90;99.90
3478;DHT22;37937;61.490;23.506;2022-07-29T12:47:14;18.60;99.90
3478;DHT22;37937;61.490;23.506;2022-07-29T12:49:40;18.80;99.90
3478;DHT22;37937;61.490;23.506;2022-07-29T12:54:51;18.70;99.90
3478;DHT22;37937;61.490;23.506;2022-07-29T12:57:17;18.60;99.90
3478;DHT22;37937;61.490;23.506;2022-07-29T12:59:43;18.50;99.90
3478;DHT22;37937;61.490;23.506;2022-07-29T13:02:20;18.70;99.90
3478;DHT22;37937;61.490;23.506;2022-07-29T13:04:54;18.70;99.90
3478;DHT22;37937;61.490;23.506;2022-07-29T13:07:23;19.10;99.90
3478;DHT22;37937;61.490;23.506;2022-07-29T13:09:49;19.40;99.90
3478;DHT22;37937;61.490;23.506;2022-07-29T13:12:16;19.60;99.90
3478;DHT22;37937;61.490;23.506;2022-07-29T13:14:43;19.70;99.90
3478;DHT22;37937;61.490;23.506;2022-07-29T13:17:13;19.50;99.90
3478;DHT22;37937;61.490;23.506;2022-07-29T13:22:10;19.80;99.90
3478;DHT22;37937;61.490;23.506;2022-07-29T13:27:14;19.60;99.90
3478;DHT22;37937;61.490;23.506;2022-07-29T13:29:40;19.40;99.90
3478;DHT22;37937;61.490;23.506;2022-07-29T13:32:06;19.30;99.90
3478;DHT22;37937;61.490;23.506;2022-07-29T13:34:32;19.40;99.90
3478;DHT22;37937;61.490;23.506;2022-07-29T13:37:01;19.10;99.90
3478;DHT22;37937;61.490;23.506;2022-07-29T13:39:26;19.30;99.90
3478;DHT22;37937;61.490;23.506;2022-07-29T13:41:52;19.20;99.90
3478;DHT22;37937;61.490;23.506;2022-07-29T13:44:18;19.10;99.90
3478;DHT22;37937;61.490;23.506;2022-07-29T13:46:44;19.20;99.90
3478;DHT22;37937;61.490;23.506;2022-07-29T13:49:09;18.90;99.90
3478;DHT22;37937;61.490;23.506;2022-07-29T13:51:36;19.10;99.90
3478;DHT22;37937;61.490;23.506;2022-07-29T13:54:02;19.10;99.90
3478;DHT22;37937;61.490;23.506;2022-07-29T13:56:28;19.30;99.90
3478;DHT22;37937;61.490;23.506;2022-07-29T13:58:54;19.20;99.90
3478;DHT22;37937;61.490;23.506;2022-07-29T14:01:19;19.40;99.90
3478;DHT22;37937;61.490;23.506;2022-07-29T14:03:45;19.40;99.90
3478;DHT22;37937;61.490;23.506;2022-07-29T14:06:10;19.10;99.90
3478;DHT22;37937;61.490;23.506;2022-07-29T14:08:37;19.20;99.90
3478;DHT22;37937;61.490;23.506;2022-07-29T14:11:03;19.00;99.90
3478;DHT22;37937;61.490;23.506;2022-07-29T14:13:29;19.00;99.90
3478;DHT22;37937;61.490;23.506;2022-07-29T14:15:56;18.90;99.90
3478;DHT22;37937;61.490;23.506;2022-07-29T14:18:23;18.60;99.90
3478;DHT22;37937;61.490;23.506;2022-07-29T14:20:49;18.80;99.90
3478;DHT22;37937;61.490;23.506;2022-07-29T14:23:16;18.60;99.90
3478;DHT22;37937;61.490;23.506;2022-07-29T14:25:42;18.60;99.90
3478;DHT22;37937;61.490;23.506;2022-07-29T14:28:08;18.50;99.90
3478;DHT22;37937;61.490;23.506;2022-07-29T14:30:34;18.60;99.90
3478;DHT22;37937;61.490;23.506;2022-07-29T14:33:00;18.50;99.90
3478;DHT22;37937;61.490;23.506;2022-07-29T14:35:26;18.50;99.90
3478;DHT22;37937;61.490;23.506;2022-07-29T14:37:51;18.40;99.90
3478;DHT22;37937;61.490;23.506;2022-07-29T14:40:17;18.20;99.90
3478;DHT22;37937;61.490;23.506;2022-07-29T14:42:43;18.20;99.90
3478;DHT22;37937;61.490;23.506;2022-07-29T14:45:09;18.40;99.90
3478;DHT22;37937;61.490;23.506;2022-07-29T14:47:35;18.20;99.90
3478;DHT22;37937;61.490;23.506;2022-07-29T14:50:01;18.30;99.90
3478;DHT22;37937;61.490;23.506;2022-07-29T14:52:27;18.30;99.90
3478;DHT22;37937;61.490;23.506;2022-07-29T14:54:52;18.30;99.90
3478;DHT22;37937;61.490;23.506;2022-07-29T14:57:18;18.40;99.90
3478;DHT22;37937;61.490;23.506;2022-07-29T14:59:43;18.20;99.90
3478;DHT22;37937;61.490;23.506;2022-07-29T15:02:09;18.20;99.90
3478;DHT22;37937;61.490;23.506;2022-07-29T15:04:35;18.30;99.90
3478;DHT22;37937;61.490;23.506;2022-07-29T15:07:00;18.20;99.90
3478;DHT22;37937;61.490;23.506;2022-07-29T15:09:27;18.20;99.90
3478;DHT22;37937;61.490;23.506;2022-07-29T15:11:53;18.30;99.90
3478;DHT22;37937;61.490;23.506;2022-07-29T15:14:19;18.20;99.90
3478;DHT22;37937;61.490;23.506;2022-07-29T15:16:45;18.10;99.90
3478;DHT22;37937;61.490;23.506;2022-07-29T15:19:11;18.10;99.90
3478;DHT22;37937;61.490;23.506;2022-07-29T15:21:37;18.10;99.90
3478;DHT22;37937;61.490;23.506;2022-07-29T15:24:03;17.90;99.90
3478;DHT22;37937;61.490;23.506;2022-07-29T15:26:29;17.90;99.90
3478;DHT22;37937;61.490;23.506;2022-07-29T15:28:54;18.00;99.90
3478;DHT22;37937;61.490;23.506;2022-07-29T15:31:24;17.90;99.90
3478;DHT22;37937;61.490;23.506;2022-07-29T15:33:49;17.90;99.90
3478;DHT22;37937;61.490;23.506;2022-07-29T15:36:15;17.80;99.90
3478;DHT22;37937;61.490;23.506;2022-07-29T15:38:41;17.70;99.90
3478;DHT22;37937;61.490;23.506;2022-07-29T15:41:06;17.60;99.90
3478;DHT22;37937;61.490;23.506;2022-07-29T15:43:32;17.50;99.90
3478;DHT22;37937;61.490;23.506;2022-07-29T15:46:00;17.50;99.90
3478;DHT22;37937;61.490;23.506;2022-07-29T15:48:45;17.40;99.90
3478;DHT22;37937;61.490;23.506;2022-07-29T15:51:10;17.60;99.90
3478;DHT22;37937;61.490;23.506;2022-07-29T15:53:36;17.50;99.90
3478;DHT22;37937;61.490;23.506;2022-07-29T15:56:04;17.40;99.90
3478;DHT22;37937;61.490;23.506;2022-07-29T15:58:30;17.30;99.90
3478;DHT22;37937;61.490;23.506;2022-07-29T16:00:55;17.30;99.90
3478;DHT22;37937;61.490;23.506;2022-07-29T16:03:21;17.20;99.90
3478;DHT22;37937;61.490;23.506;2022-07-29T16:05:47;17.30;99.90
3478;DHT22;37937;61.490;23.506;2022-07-29T16:08:13;17.30;99.90
3478;DHT22;37937;61.490;23.506;2022-07-29T16:10:39;17.20;99.90
3478;DHT22;37937;61.490;23.506;2022-07-29T16:13:08;17.40;99.90